Terminal Aerodrome Forecast
Issued by NWS

Home | Current Version | Previous Version | Graphics & Text | Print | Product List | Glossary On
Versions: 1 2 3 4 5 6 7 8 9 10 11 12 13 14
652
FTUS43 KOAX 201720
TAFCDR
TAF
KCDR 201720Z 2018/2118 27015G24KT P6SM BKN150
     FM210000 29008KT P6SM BKN150
     FM210600 32011KT P6SM BKN040=

USA.gov is the U.S. government's official web portal to all federal, state and local government web resources and services.